createdAt,value
2023-03-17T00:01:12.573Z,214.50
2023-03-17T00:03:43.405Z,209.73
2023-03-17T00:06:19.569Z,179.65
2023-03-17T00:08:46.513Z,160.35
2023-03-17T00:11:15.290Z,146.55
2023-03-17T00:13:42.452Z,129.15
2023-03-17T00:16:22.131Z,110.00
2023-03-17T00:18:50.462Z,115.95
2023-03-17T00:21:22.641Z,106.97
2023-03-17T00:26:18.748Z,92.15
2023-03-17T00:28:45.697Z,85.65
2023-03-17T00:31:21.306Z,89.72
2023-03-17T00:33:54.788Z,82.30
2023-03-17T00:36:22.872Z,79.53
2023-03-17T00:38:59.913Z,76.30
2023-03-17T00:41:27.410Z,77.65
2023-03-17T00:43:54.432Z,72.25
2023-03-17T00:46:27.901Z,83.13
2023-03-17T00:48:55.282Z,76.53
2023-03-17T00:51:23.418Z,80.57
2023-03-17T00:53:50.769Z,71.20
2023-03-17T00:56:19.721Z,81.03
2023-03-17T00:58:48.508Z,86.70
2023-03-17T01:01:16.053Z,75.20
2023-03-17T01:03:43.055Z,81.93
2023-03-17T01:06:12.716Z,86.22
2023-03-17T01:08:40.874Z,90.55
2023-03-17T01:11:14.775Z,91.22
2023-03-17T01:13:41.822Z,93.05
2023-03-17T01:16:12.925Z,84.82
2023-03-17T01:18:40.042Z,80.22
2023-03-17T01:21:07.876Z,84.70
2023-03-17T01:23:34.824Z,76.03
2023-03-17T01:26:01.782Z,73.60
2023-03-17T01:28:29.043Z,70.63
2023-03-17T01:30:56.897Z,76.45
2023-03-17T01:33:25.691Z,72.68
2023-03-17T01:35:52.746Z,70.70
2023-03-17T01:38:19.628Z,67.85
2023-03-17T01:40:49.850Z,66.93
2023-03-17T01:43:29.604Z,68.75
2023-03-17T01:46:17.839Z,60.50
2023-03-17T01:49:04.674Z,65.30
2023-03-17T01:51:49.703Z,67.50
2023-03-17T01:54:45.264Z,68.65
2023-03-17T01:57:28.745Z,70.70
2023-03-17T02:00:18.155Z,63.10
2023-03-17T02:02:56.210Z,63.70
2023-03-17T02:05:26.121Z,71.35
2023-03-17T02:07:54.468Z,75.60
2023-03-17T02:10:23.109Z,61.60
2023-03-17T02:12:56.777Z,63.10
2023-03-17T02:15:24.091Z,62.08
2023-03-17T02:17:51.088Z,76.18
2023-03-17T02:20:18.524Z,64.53
2023-03-17T02:22:48.319Z,68.70
2023-03-17T02:25:16.150Z,60.25
2023-03-17T02:27:46.342Z,72.78
2023-03-17T02:30:21.666Z,66.57
2023-03-17T02:32:48.591Z,60.97
2023-03-17T02:35:15.876Z,60.63
2023-03-17T02:37:43.785Z,69.05
2023-03-17T02:40:11.617Z,60.15
2023-03-17T02:42:39.486Z,62.78
2023-03-17T02:45:08.065Z,60.58
2023-03-17T02:47:35.748Z,64.82
2023-03-17T02:50:05.641Z,57.20
2023-03-17T02:52:32.439Z,53.83
2023-03-17T02:55:00.701Z,60.20
2023-03-17T02:57:27.608Z,60.45
2023-03-17T02:59:54.544Z,59.17
2023-03-17T03:02:21.348Z,56.65
2023-03-17T03:04:48.754Z,53.67
2023-03-17T03:07:16.241Z,57.25
2023-03-17T03:09:43.138Z,65.18
2023-03-17T03:12:10.188Z,58.58
2023-03-17T03:14:37.627Z,61.85
2023-03-17T03:17:04.529Z,66.97
2023-03-17T03:19:34.017Z,64.03
2023-03-17T03:22:00.865Z,68.68
2023-03-17T03:24:28.054Z,62.88
2023-03-17T03:26:54.867Z,70.65
2023-03-17T03:29:21.712Z,60.30
2023-03-17T03:31:48.819Z,63.25
2023-03-17T03:34:18.267Z,61.13
2023-03-17T03:36:45.093Z,59.13
2023-03-17T03:39:14.351Z,58.15
2023-03-17T03:41:41.627Z,53.47
2023-03-17T03:44:08.575Z,59.80
2023-03-17T03:46:35.571Z,53.70
2023-03-17T03:49:02.388Z,61.05
2023-03-17T03:51:29.240Z,53.92
2023-03-17T03:53:56.092Z,65.07
2023-03-17T03:56:22.907Z,62.28
2023-03-17T03:58:49.784Z,81.10
2023-03-17T04:01:16.736Z,63.38
2023-03-17T04:03:43.744Z,65.85
2023-03-17T04:06:11.436Z,67.60
2023-03-17T04:08:38.234Z,70.90
2023-03-17T04:11:05.277Z,66.65
2023-03-17T04:13:32.169Z,68.22
2023-03-17T04:15:59.086Z,63.30
2023-03-17T04:18:26.415Z,68.95
2023-03-17T04:20:58.866Z,53.72
2023-03-17T04:23:25.941Z,55.97
2023-03-17T04:25:53.810Z,58.85
2023-03-17T04:28:21.128Z,56.50
2023-03-17T04:30:48.037Z,60.28
2023-03-17T04:33:14.922Z,55.05
2023-03-17T04:35:41.954Z,49.13
2023-03-17T04:38:11.765Z,47.85
2023-03-17T04:40:38.641Z,54.97
2023-03-17T04:43:05.569Z,57.22
2023-03-17T04:45:32.503Z,54.97
2023-03-17T04:47:59.382Z,54.35
2023-03-17T04:50:26.657Z,48.05
2023-03-17T04:52:53.811Z,51.65
2023-03-17T04:55:21.229Z,42.42
2023-03-17T04:57:48.349Z,43.47
2023-03-17T05:00:15.703Z,45.88
2023-03-17T05:02:42.772Z,45.05
2023-03-17T05:05:10.026Z,41.42
2023-03-17T05:07:36.804Z,43.33
2023-03-17T05:10:05.624Z,47.97
2023-03-17T05:12:32.736Z,43.53
2023-03-17T05:14:59.601Z,47.90
2023-03-17T05:17:26.423Z,53.30
2023-03-17T05:19:54.738Z,73.13
2023-03-17T05:22:21.646Z,44.40
2023-03-17T05:24:48.448Z,47.50
2023-03-17T05:27:15.557Z,40.78
2023-03-17T05:29:42.435Z,40.33
2023-03-17T05:32:09.355Z,41.83
2023-03-17T05:34:36.251Z,51.03
2023-03-17T05:37:03.458Z,50.60
2023-03-17T05:39:30.338Z,56.78
2023-03-17T05:41:57.341Z,67.07
2023-03-17T05:44:24.236Z,120.68
2023-03-17T05:46:51.378Z,120.53
2023-03-17T05:49:18.866Z,108.13
2023-03-17T05:51:45.799Z,80.60
2023-03-17T05:54:12.986Z,99.10
2023-03-17T05:56:40.404Z,71.45
2023-03-17T05:59:07.211Z,63.92
2023-03-17T06:01:34.207Z,68.03
2023-03-17T06:04:05.813Z,50.67
2023-03-17T06:06:32.765Z,31.58
2023-03-17T06:08:59.804Z,38.75
2023-03-17T06:11:26.777Z,39.35
2023-03-17T06:13:53.752Z,38.00
2023-03-17T06:16:21.084Z,46.90
2023-03-17T06:18:48.678Z,47.30
2023-03-17T06:21:16.361Z,45.25
2023-03-17T06:23:43.620Z,44.35
2023-03-17T06:26:10.401Z,51.88
2023-03-17T06:28:37.216Z,70.63
2023-03-17T06:31:07.039Z,110.53
2023-03-17T06:33:34.638Z,82.93
2023-03-17T06:36:01.849Z,73.63
2023-03-17T06:38:28.656Z,77.32
2023-03-17T06:40:55.782Z,93.00
2023-03-17T06:43:24.693Z,100.47
2023-03-17T06:45:52.569Z,100.53
2023-03-17T06:48:19.839Z,84.85
2023-03-17T06:50:50.370Z,84.97
2023-03-17T06:53:17.475Z,65.80
2023-03-17T06:55:45.131Z,52.65
2023-03-17T06:58:13.203Z,55.28
2023-03-17T07:00:48.904Z,44.97
2023-03-17T07:03:16.203Z,45.08
2023-03-17T07:05:43.704Z,44.85
2023-03-17T07:08:11.582Z,49.58
2023-03-17T07:10:38.544Z,41.50
2023-03-17T07:13:07.791Z,43.50
2023-03-17T07:15:36.006Z,48.15
2023-03-17T07:18:03.460Z,40.40
2023-03-17T07:20:31.068Z,41.72
2023-03-17T07:22:58.154Z,41.92
2023-03-17T07:25:25.329Z,38.30
2023-03-17T07:27:52.204Z,38.95
2023-03-17T07:30:19.720Z,45.30
2023-03-17T07:32:47.715Z,46.97
2023-03-17T07:35:15.565Z,48.17
2023-03-17T07:37:43.028Z,58.53
2023-03-17T07:40:11.042Z,40.47
2023-03-17T07:42:38.754Z,48.95
2023-03-17T07:45:06.332Z,42.67
2023-03-17T07:47:33.098Z,46.00
2023-03-17T07:49:59.941Z,52.97
2023-03-17T07:52:26.802Z,52.78
2023-03-17T07:54:54.623Z,53.03
2023-03-17T07:57:22.346Z,42.92
2023-03-17T07:59:49.685Z,41.00
2023-03-17T08:02:17.502Z,46.15
2023-03-17T08:04:45.357Z,56.63
2023-03-17T08:07:12.957Z,48.15
2023-03-17T08:09:39.796Z,48.97
2023-03-17T08:12:08.890Z,43.20
2023-03-17T08:14:36.000Z,47.78
2023-03-17T08:17:03.055Z,58.92
2023-03-17T08:19:29.908Z,40.10
2023-03-17T08:21:57.124Z,51.95
2023-03-17T08:24:23.950Z,42.03
2023-03-17T08:26:50.817Z,40.05
2023-03-17T08:29:18.667Z,42.85
2023-03-17T08:31:46.731Z,43.67
2023-03-17T08:34:13.927Z,38.15
2023-03-17T08:36:41.018Z,36.47
2023-03-17T08:39:10.521Z,49.80
2023-03-17T08:41:38.797Z,36.83
2023-03-17T08:44:05.669Z,34.13
2023-03-17T08:46:33.063Z,40.22
2023-03-17T08:49:00.999Z,37.45
2023-03-17T08:51:31.305Z,41.38
2023-03-17T08:53:59.817Z,40.50
2023-03-17T08:56:27.261Z,26.55
2023-03-17T08:58:54.535Z,26.80
2023-03-17T09:01:23.041Z,27.13
2023-03-17T09:03:50.950Z,26.88
2023-03-17T09:06:18.171Z,20.88
2023-03-17T09:08:47.456Z,31.67
2023-03-17T09:11:16.762Z,21.27
2023-03-17T09:13:44.883Z,25.58
2023-03-17T09:16:11.864Z,25.45
2023-03-17T09:18:39.149Z,25.88
2023-03-17T09:21:06.378Z,22.08
2023-03-17T09:23:33.807Z,24.13
2023-03-17T09:26:01.250Z,28.60
2023-03-17T09:28:29.182Z,30.50
2023-03-17T09:31:04.370Z,24.73
2023-03-17T09:33:31.791Z,19.67
2023-03-17T09:35:58.700Z,30.98
2023-03-17T09:38:27.767Z,29.42
2023-03-17T09:41:06.914Z,22.63
2023-03-17T09:43:57.426Z,24.50
2023-03-17T09:46:47.059Z,27.05
2023-03-17T09:49:40.662Z,20.98
2023-03-17T09:52:15.120Z,19.23
2023-03-17T09:54:42.409Z,22.23
2023-03-17T09:57:21.233Z,23.70
2023-03-17T10:00:01.896Z,19.58
2023-03-17T10:02:33.161Z,22.73
2023-03-17T10:05:21.897Z,20.85
2023-03-17T10:07:51.694Z,27.70
2023-03-17T10:10:53.690Z,24.50
2023-03-17T10:13:35.720Z,21.48
2023-03-17T10:16:11.558Z,19.90
2023-03-17T10:19:01.362Z,21.77
2023-03-17T10:21:31.955Z,28.88
2023-03-17T10:23:59.396Z,23.83
2023-03-17T10:26:34.075Z,28.88
2023-03-17T10:29:04.277Z,22.30
2023-03-17T10:31:33.482Z,22.58
2023-03-17T10:34:17.377Z,23.58
2023-03-17T10:36:51.037Z,24.05
2023-03-17T10:39:20.372Z,30.20
2023-03-17T10:42:10.122Z,24.98
2023-03-17T10:44:56.813Z,22.73
2023-03-17T10:47:31.898Z,21.50
2023-03-17T10:50:04.246Z,24.65
2023-03-17T10:52:34.984Z,24.80
2023-03-17T10:55:06.374Z,19.00
2023-03-17T10:57:37.571Z,27.70
2023-03-17T11:00:12.529Z,23.42
2023-03-17T11:02:46.056Z,22.30
2023-03-17T11:05:27.791Z,20.50
2023-03-17T11:08:19.693Z,23.23
2023-03-17T11:10:46.933Z,25.98
2023-03-17T11:13:17.637Z,24.83
2023-03-17T11:15:51.941Z,25.13
2023-03-17T11:18:36.012Z,22.48
2023-03-17T11:21:10.432Z,25.27
2023-03-17T11:23:47.775Z,22.67
2023-03-17T11:26:27.617Z,26.45
2023-03-17T11:29:19.880Z,23.02
2023-03-17T11:31:46.867Z,24.08
2023-03-17T11:34:13.767Z,24.67
2023-03-17T11:37:06.902Z,20.15
2023-03-17T11:39:46.250Z,21.27
2023-03-17T11:42:14.813Z,27.10
2023-03-17T11:45:06.900Z,24.73
2023-03-17T11:47:55.198Z,23.25
2023-03-17T11:50:39.366Z,21.52
2023-03-17T11:53:36.864Z,23.40
2023-03-17T11:56:40.415Z,26.33
2023-03-17T11:59:21.989Z,22.95
2023-03-17T12:01:56.032Z,17.47
2023-03-17T12:04:34.213Z,22.52
2023-03-17T12:07:08.443Z,29.95
2023-03-17T12:09:45.718Z,28.15
2023-03-17T12:12:16.155Z,18.83
2023-03-17T12:14:48.879Z,28.83
2023-03-17T12:17:25.853Z,19.42
2023-03-17T12:20:12.698Z,27.17
2023-03-17T12:23:11.100Z,22.00
2023-03-17T12:25:51.622Z,20.25
2023-03-17T12:28:23.090Z,21.27
2023-03-17T12:30:54.422Z,22.88
2023-03-17T12:33:30.869Z,22.48
2023-03-17T12:35:59.341Z,18.60
2023-03-17T12:38:35.898Z,20.02
2023-03-17T12:41:15.409Z,12.65
2023-03-17T12:44:14.603Z,21.38
2023-03-17T12:46:50.381Z,15.70
2023-03-17T12:49:31.043Z,25.95
2023-03-17T12:52:22.815Z,16.73
2023-03-17T12:54:52.050Z,17.80
2023-03-17T12:57:22.170Z,22.77
2023-03-17T12:59:58.153Z,12.23
2023-03-17T13:02:28.100Z,13.30
2023-03-17T13:05:00.042Z,11.90
2023-03-17T13:07:45.108Z,17.67
2023-03-17T13:10:30.678Z,16.80
2023-03-17T13:13:07.075Z,15.55
2023-03-17T13:15:38.343Z,13.48
2023-03-17T13:18:14.759Z,18.37
2023-03-17T13:20:43.296Z,14.45
2023-03-17T13:23:10.326Z,13.95
2023-03-17T13:25:41.508Z,16.23
2023-03-17T13:28:14.001Z,13.85
2023-03-17T13:30:42.457Z,15.55
2023-03-17T13:33:12.238Z,17.13
2023-03-17T13:35:52.584Z,17.70
2023-03-17T13:38:52.484Z,17.38
2023-03-17T13:41:50.095Z,15.00
2023-03-17T13:44:19.795Z,11.40
2023-03-17T13:46:47.844Z,16.63
2023-03-17T13:49:17.950Z,17.10
2023-03-17T13:51:59.421Z,13.35
2023-03-17T13:54:26.901Z,18.10
2023-03-17T13:56:55.173Z,15.75
2023-03-17T13:59:22.819Z,24.08
2023-03-17T14:01:56.603Z,14.65
2023-03-17T14:04:30.030Z,12.13
2023-03-17T14:07:00.261Z,17.48
2023-03-17T14:09:42.446Z,12.85
2023-03-17T14:12:25.535Z,12.60
2023-03-17T14:15:27.486Z,19.17
2023-03-17T14:18:01.614Z,15.75
2023-03-17T14:20:29.099Z,21.73
2023-03-17T14:23:03.929Z,12.43
2023-03-17T14:25:33.661Z,11.02
2023-03-17T14:28:00.827Z,15.50
2023-03-17T14:30:30.854Z,11.43
2023-03-17T14:33:21.707Z,16.50
2023-03-17T14:35:51.427Z,13.77
2023-03-17T14:38:30.916Z,12.93
2023-03-17T14:41:13.981Z,27.08
2023-03-17T14:43:41.826Z,13.05
2023-03-17T14:46:14.862Z,17.80
2023-03-17T14:48:44.079Z,15.90
2023-03-17T14:51:23.588Z,14.38
2023-03-17T14:53:52.143Z,15.35
2023-03-17T14:56:23.683Z,23.48
2023-03-17T14:58:53.631Z,16.40
2023-03-17T15:01:33.176Z,11.57
2023-03-17T15:04:06.729Z,16.10
2023-03-17T15:06:36.861Z,14.70
2023-03-17T15:09:21.184Z,16.33
2023-03-17T15:11:48.239Z,16.17
2023-03-17T15:14:21.094Z,18.35
2023-03-17T15:16:50.897Z,13.00
2023-03-17T15:19:40.570Z,19.65
2023-03-17T15:22:49.255Z,18.83
2023-03-17T15:25:37.587Z,16.30
2023-03-17T15:28:18.321Z,16.05
2023-03-17T15:31:13.865Z,16.60
2023-03-17T15:33:42.317Z,16.23
2023-03-17T15:36:29.214Z,14.90
2023-03-17T15:38:58.023Z,13.07
2023-03-17T15:41:24.846Z,10.25
2023-03-17T15:43:51.862Z,15.23
2023-03-17T15:46:27.645Z,20.63
2023-03-17T15:48:54.585Z,14.88
2023-03-17T15:51:22.106Z,14.18
2023-03-17T15:53:51.368Z,14.50
2023-03-17T15:56:20.480Z,14.23
2023-03-17T15:58:49.256Z,13.60
2023-03-17T16:01:16.822Z,21.80
2023-03-17T16:03:45.482Z,16.35
2023-03-17T16:06:21.343Z,23.40
2023-03-17T16:08:49.097Z,15.98
2023-03-17T16:11:27.847Z,17.25
2023-03-17T16:13:56.096Z,16.42
2023-03-17T16:16:35.164Z,18.15
2023-03-17T16:19:04.772Z,22.85
2023-03-17T16:21:32.484Z,21.25
2023-03-17T16:23:59.543Z,16.38
2023-03-17T16:26:26.705Z,22.52
2023-03-17T16:28:54.026Z,18.88
2023-03-17T16:31:31.410Z,25.52
2023-03-17T16:33:58.598Z,22.17
2023-03-17T16:36:26.199Z,20.25
2023-03-17T16:38:53.152Z,23.70
2023-03-17T16:41:25.624Z,26.00
2023-03-17T16:44:00.642Z,18.05
2023-03-17T16:46:28.690Z,30.00
2023-03-17T16:48:56.261Z,20.00
2023-03-17T16:51:24.988Z,24.27
2023-03-17T16:53:51.995Z,23.70
2023-03-17T16:56:21.548Z,20.80
2023-03-17T16:58:48.949Z,22.63
2023-03-17T17:06:25.376Z,24.45
2023-03-17T17:08:52.382Z,26.85
2023-03-17T17:11:20.403Z,26.77
2023-03-17T17:13:48.370Z,29.63
2023-03-17T17:16:31.495Z,21.55
2023-03-17T17:18:59.227Z,20.40
2023-03-17T17:21:26.688Z,19.98
2023-03-17T17:23:53.862Z,29.48
2023-03-17T17:26:21.419Z,26.17
2023-03-17T17:28:48.636Z,29.58
2023-03-17T17:31:15.709Z,29.00
2023-03-17T17:33:42.633Z,32.67
2023-03-17T17:36:14.425Z,25.80
2023-03-17T17:38:41.343Z,25.67
2023-03-17T17:41:09.769Z,27.30
2023-03-17T17:43:36.640Z,31.95
2023-03-17T17:46:03.458Z,26.27
2023-03-17T17:48:30.507Z,29.73
2023-03-17T17:50:57.728Z,23.45
2023-03-17T17:53:24.670Z,28.83
2023-03-17T17:55:51.954Z,27.02
2023-03-17T17:58:21.647Z,27.88
2023-03-17T18:00:49.049Z,25.52
2023-03-17T18:03:16.086Z,30.77
2023-03-17T18:05:43.078Z,25.92
2023-03-17T18:08:11.597Z,27.60
2023-03-17T18:10:38.390Z,22.15
2023-03-17T18:13:07.439Z,23.75
2023-03-17T18:15:34.388Z,28.58
2023-03-17T18:18:01.185Z,26.98
2023-03-17T18:20:28.081Z,29.58
2023-03-17T18:22:54.913Z,21.45
2023-03-17T18:25:21.916Z,24.58
2023-03-17T18:27:48.737Z,19.30
2023-03-17T18:30:27.129Z,23.10
2023-03-17T18:32:56.404Z,21.70
2023-03-17T18:35:24.754Z,24.20
2023-03-17T18:37:51.956Z,33.67
2023-03-17T18:40:19.452Z,17.45
2023-03-17T18:42:46.819Z,28.48
2023-03-17T18:45:13.718Z,27.25
2023-03-17T18:47:41.975Z,25.70
2023-03-17T18:50:11.197Z,27.08
2023-03-17T18:52:40.430Z,27.95
2023-03-17T18:55:08.204Z,33.50
2023-03-17T18:57:35.149Z,23.10
2023-03-17T19:00:02.035Z,24.95
2023-03-17T19:02:28.839Z,23.42
2023-03-17T19:04:55.602Z,24.60
2023-03-17T19:07:22.512Z,24.88
2023-03-17T19:09:49.615Z,20.58
2023-03-17T19:12:16.405Z,24.42
2023-03-17T19:14:43.925Z,23.30
2023-03-17T19:17:11.069Z,24.10
2023-03-17T19:19:38.667Z,31.75
2023-03-17T19:22:06.499Z,30.02
2023-03-17T19:24:35.418Z,22.23
2023-03-17T19:27:02.359Z,20.00
2023-03-17T19:29:29.243Z,21.45
2023-03-17T19:31:56.068Z,19.20
2023-03-17T19:34:23.330Z,31.60
2023-03-17T19:36:51.333Z,27.88
2023-03-17T19:39:18.561Z,20.00
2023-03-17T19:41:47.439Z,18.67
2023-03-17T19:44:14.538Z,20.00
2023-03-17T19:46:41.486Z,19.65
2023-03-17T19:49:08.359Z,20.52
2023-03-17T19:51:35.275Z,31.33
2023-03-17T19:54:02.268Z,28.73
2023-03-17T19:56:29.080Z,26.98
2023-03-17T19:58:56.074Z,27.15
2023-03-17T20:01:23.188Z,31.45
2023-03-17T20:03:50.421Z,24.20
2023-03-17T20:06:17.408Z,27.42
2023-03-17T20:08:47.077Z,20.25
2023-03-17T20:11:13.967Z,22.13
2023-03-17T20:13:41.030Z,25.67
2023-03-17T20:16:08.562Z,18.52
2023-03-17T20:18:36.033Z,23.83
2023-03-17T20:21:05.847Z,22.95
2023-03-17T20:23:32.968Z,24.00
2023-03-17T20:25:59.868Z,20.55
2023-03-17T20:28:29.511Z,20.33
2023-03-17T20:31:04.530Z,21.27
2023-03-17T20:33:33.380Z,24.40
2023-03-17T20:36:00.798Z,25.60
2023-03-17T20:38:28.023Z,21.98
2023-03-17T20:41:07.400Z,18.25
2023-03-17T20:43:36.346Z,22.48
2023-03-17T20:46:05.986Z,24.67
2023-03-17T20:48:34.584Z,22.85
2023-03-17T20:51:04.454Z,25.70
2023-03-17T20:53:31.401Z,29.30
2023-03-17T20:55:58.224Z,24.67
2023-03-17T20:58:25.215Z,27.52
2023-03-17T21:00:53.401Z,23.50
2023-03-17T21:03:22.583Z,23.17
2023-03-17T21:05:49.646Z,28.27
2023-03-17T21:08:16.952Z,27.20
2023-03-17T21:10:44.706Z,25.20
2023-03-17T21:13:11.903Z,34.13
2023-03-17T21:15:38.732Z,21.40
2023-03-17T21:18:05.922Z,24.90
2023-03-17T21:20:33.072Z,24.92
2023-03-17T21:23:00.519Z,22.55
2023-03-17T21:25:27.423Z,27.70
2023-03-17T21:27:54.200Z,25.58
2023-03-17T21:30:21.582Z,26.80
2023-03-17T21:32:48.509Z,26.42
2023-03-17T21:35:16.327Z,34.03
2023-03-17T21:37:43.182Z,27.17
2023-03-17T21:40:12.876Z,24.77
2023-03-17T21:42:39.708Z,20.15
2023-03-17T21:45:06.869Z,27.40
2023-03-17T21:47:33.761Z,22.85
2023-03-17T21:50:00.867Z,26.50
2023-03-17T21:52:27.972Z,20.88
2023-03-17T21:54:54.864Z,27.77
2023-03-17T21:57:22.903Z,25.10
2023-03-17T21:59:51.134Z,31.83
2023-03-17T22:02:17.919Z,30.98
2023-03-17T22:04:46.836Z,24.63
2023-03-17T22:07:13.847Z,23.17
2023-03-17T22:09:41.839Z,26.15
2023-03-17T22:12:08.890Z,23.55
2023-03-17T22:14:36.147Z,24.20
2023-03-17T22:17:05.399Z,24.48
2023-03-17T22:19:32.666Z,29.50
2023-03-17T22:21:59.567Z,25.00
2023-03-17T22:24:26.561Z,28.25
2023-03-17T22:26:54.882Z,28.13
2023-03-17T22:29:22.135Z,27.75
2023-03-17T22:31:49.073Z,26.77
2023-03-17T22:34:16.315Z,28.85
2023-03-17T22:36:43.108Z,22.65
2023-03-17T22:39:12.809Z,24.00
2023-03-17T22:41:39.718Z,28.33
2023-03-17T22:44:09.157Z,27.45
2023-03-17T22:46:37.806Z,23.98
2023-03-17T22:49:07.945Z,28.10
2023-03-17T22:51:36.040Z,26.13
2023-03-17T22:54:03.198Z,25.08
2023-03-17T22:56:30.186Z,29.95
2023-03-17T22:58:57.159Z,23.95
2023-03-17T23:01:25.792Z,24.63
2023-03-17T23:03:53.646Z,25.60
2023-03-17T23:06:20.985Z,27.00
2023-03-17T23:08:48.253Z,27.95
2023-03-17T23:11:21.225Z,43.20
2023-03-17T23:13:48.787Z,29.27
2023-03-17T23:16:15.891Z,29.50
2023-03-17T23:18:46.095Z,38.22
2023-03-17T23:21:22.173Z,42.58
2023-03-17T23:23:49.560Z,33.85
2023-03-17T23:26:16.693Z,28.95
2023-03-17T23:28:46.487Z,34.20
2023-03-17T23:31:15.935Z,27.77
2023-03-17T23:33:43.781Z,22.45
2023-03-17T23:36:10.641Z,32.00
2023-03-17T23:38:37.511Z,27.40
2023-03-17T23:41:04.522Z,35.40
2023-03-17T23:43:31.759Z,23.58
2023-03-17T23:45:58.622Z,27.00
2023-03-17T23:48:25.617Z,32.45
2023-03-17T23:50:53.062Z,27.77
2023-03-17T23:53:21.472Z,31.55
2023-03-17T23:55:48.344Z,32.03
2023-03-17T23:58:15.682Z,27.92
